Time;durP1;ratioP1;P1;durP2;ratioP2;P2;SDS_P1;SDS_P2;PMS_P1;PMS_P2;Temp;Humidity;BMP_temperature;BMP_pressure;BME280_temperature;BME280_humidity;BME280_pressure;Samples;Min_cycle;Max_cycle;Signal;HPM_P1;HPM_P2
2024/04/16 00:01:56;;;;;;;1.98;0.95;;;;;;;4.66;100.00;99694.97;5437680;26;20003;-73
2024/04/16 00:04:22;;;;;;;3.95;1.10;;;;;;;4.62;100.00;99699.84;5434125;26;20002;-73
2024/04/16 00:06:49;;;;;;;2.67;1.00;;;;;;;4.58;100.00;99695.91;5430677;26;20073;-73
2024/04/16 00:09:34;;;;;;;3.63;1.00;;;;;;;4.56;100.00;99697.91;5372663;26;19995;-74
2024/04/16 00:12:00;;;;;;;2.95;1.02;;;;;;;4.43;100.00;99681.78;5431366;26;19995;-72
2024/04/16 00:14:25;;;;;;;6.82;1.10;;;;;;;4.49;100.00;99681.03;5430380;26;19995;-73
2024/04/16 00:16:51;;;;;;;2.60;1.13;;;;;;;4.52;100.00;99680.66;5461479;26;20005;-73
2024/04/16 00:19:16;;;;;;;1.92;1.00;;;;;;;4.48;100.00;99680.22;5427885;26;20002;-73
2024/04/16 00:21:41;;;;;;;1.83;0.95;;;;;;;4.45;100.00;99685.09;5461618;26;19991;-73
2024/04/16 00:24:07;;;;;;;3.30;1.15;;;;;;;4.37;100.00;99667.41;5429773;26;19999;-73
2024/04/16 00:26:33;;;;;;;1.73;0.90;;;;;;;4.44;100.00;99684.28;5430560;26;20002;-73
2024/04/16 00:28:58;;;;;;;3.38;1.02;;;;;;;4.44;100.00;99678.13;5461981;26;20050;-73
2024/04/16 00:31:23;;;;;;;2.10;0.80;;;;;;;4.22;100.00;99654.09;5400266;26;20009;-73
2024/04/16 00:33:49;;;;;;;1.80;0.93;;;;;;;3.78;100.00;99587.63;5430853;26;20014;-73
2024/04/16 00:36:14;;;;;;;2.30;1.10;;;;;;;4.37;100.00;99680.72;5400706;26;19995;-73
2024/04/16 00:38:40;;;;;;;5.88;1.10;;;;;;;4.30;100.00;99670.97;5431669;26;19999;-73
2024/04/16 00:41:07;;;;;;;4.22;0.95;;;;;;;4.35;100.00;99684.56;5431204;26;19999;-73
2024/04/16 00:43:32;;;;;;;2.40;0.88;;;;;;;4.20;100.00;99656.09;5401389;26;20006;-73
2024/04/16 00:45:58;;;;;;;2.00;0.90;;;;;;;4.34;100.00;99682.91;5430927;26;19999;-73
2024/04/16 00:48:26;;;;;;;2.05;0.82;;;;;;;4.32;100.00;99693.75;5430590;26;20019;-73
2024/04/16 00:50:54;;;;;;;2.58;1.13;;;;;;;4.31;100.00;99680.63;5430422;26;20330;-73
2024/04/16 00:53:20;;;;;;;3.13;1.05;;;;;;;4.31;100.00;99676.13;5430595;26;19998;-74
2024/04/16 00:55:46;;;;;;;2.35;1.00;;;;;;;4.16;100.00;99652.16;5430029;26;20005;-73
2024/04/16 00:58:16;;;;;;;1.90;0.75;;;;;;;4.21;100.00;99656.94;5459976;26;20041;-72
2024/04/16 01:00:42;;;;;;;4.30;0.90;;;;;;;4.27;100.00;99663.34;5431664;26;19991;-73
2024/04/16 01:03:07;;;;;;;4.20;1.20;;;;;;;4.36;100.00;99670.22;5428198;26;20014;-73
2024/04/16 01:05:34;;;;;;;2.08;0.90;;;;;;;4.40;100.00;99683.00;5399385;26;19999;-73
2024/04/16 01:08:01;;;;;;;2.88;1.20;;;;;;;4.33;100.00;99668.75;5461055;26;19999;-74
2024/04/16 01:10:27;;;;;;;4.28;0.80;;;;;;;4.44;100.00;99676.28;5460749;26;20005;-73
2024/04/16 01:12:52;;;;;;;3.38;1.13;;;;;;;4.41;100.00;99667.84;5427800;26;19995;-74
2024/04/16 01:15:18;;;;;;;6.90;1.17;;;;;;;4.44;100.00;99683.44;5427642;26;20031;-73
2024/04/16 01:17:44;;;;;;;2.47;1.00;;;;;;;4.29;100.00;99661.34;5426937;26;20027;-73
2024/04/16 01:20:10;;;;;;;3.90;1.10;;;;;;;4.45;100.00;99677.94;5459113;26;20036;-74
2024/04/16 01:22:35;;;;;;;3.47;1.05;;;;;;;4.44;100.00;99678.94;5427463;26;20007;-73
2024/04/16 01:25:01;;;;;;;1.75;1.02;;;;;;;4.41;100.00;99670.50;5398008;26;20014;-74
2024/04/16 01:27:27;;;;;;;1.95;1.00;;;;;;;4.27;100.00;99650.03;5427084;26;20064;-73
2024/04/16 01:29:53;;;;;;;3.83;1.13;;;;;;;4.36;100.00;99681.69;5427067;26;20002;-74
2024/04/16 01:32:18;;;;;;;2.10;1.00;;;;;;;4.35;100.00;99689.88;5461987;26;20027;-73
2024/04/16 01:34:44;;;;;;;3.92;1.00;;;;;;;4.35;100.00;99682.72;5464054;26;20035;-73
2024/04/16 01:37:09;;;;;;;5.57;1.15;;;;;;;4.32;100.00;99680.44;5401081;26;20658;-73
2024/04/16 01:39:35;;;;;;;2.20;0.93;;;;;;;4.29;100.00;99683.47;5460302;26;20010;-74
2024/04/16 01:42:00;;;;;;;3.05;1.00;;;;;;;4.24;100.00;99685.88;5400509;26;20027;-73
2024/04/16 01:44:26;;;;;;;1.65;0.70;;;;;;;3.90;100.00;99627.88;5431810;26;19999;-74
2024/04/16 01:46:51;;;;;;;2.33;0.95;;;;;;;4.00;100.00;99653.19;5429522;26;20048;-72
2024/04/16 01:49:17;;;;;;;2.90;1.10;;;;;;;4.14;100.00;99669.34;5372668;26;20011;-73
2024/04/16 01:51:43;;;;;;;2.28;0.90;;;;;;;4.09;100.00;99677.06;5429318;26;20050;-73
2024/04/16 01:54:08;;;;;;;2.35;0.98;;;;;;;4.02;100.00;99676.16;5401024;26;20006;-73
2024/04/16 01:56:34;;;;;;;1.85;1.02;;;;;;;3.98;100.00;99676.53;5428155;26;20087;-73
2024/04/16 01:58:59;;;;;;;2.63;0.80;;;;;;;3.91;100.00;99674.78;5431069;26;19999;-73
2024/04/16 02:01:25;;;;;;;3.75;1.00;;;;;;;3.88;100.00;99680.47;5432007;26;20072;-73
2024/04/16 02:03:50;;;;;;;2.92;0.70;;;;;;;3.83;100.00;99678.34;5402216;26;19999;-73
2024/04/16 02:06:16;;;;;;;2.20;0.88;;;;;;;3.48;100.00;99634.66;5429108;26;20003;-73
2024/04/16 02:08:41;;;;;;;2.97;1.10;;;;;;;3.78;100.00;99678.06;5430232;26;20064;-73
2024/04/16 02:11:07;;;;;;;1.83;0.95;;;;;;;3.55;100.00;99651.56;5434545;26;19999;-75
2024/04/16 02:13:32;;;;;;;2.95;0.90;;;;;;;3.61;100.00;99668.59;5407673;26;20007;-75
2024/04/16 02:15:57;;;;;;;1.73;0.95;;;;;;;3.63;100.00;99671.91;5471483;26;20005;-74
2024/04/16 02:18:23;;;;;;;4.13;0.98;;;;;;;3.40;100.00;99651.50;5468924;26;20001;-74
2024/04/16 02:20:48;;;;;;;2.28;1.00;;;;;;;3.52;100.00;99683.81;5396428;26;19991;-74
2024/04/16 02:23:14;;;;;;;2.35;1.05;;;;;;;3.49;100.00;99678.88;5399923;26;19991;-73
2024/04/16 02:25:49;;;;;;;2.65;1.05;;;;;;;3.47;100.00;99691.50;5460719;26;19995;-73
2024/04/16 02:28:15;;;;;;;2.55;1.00;;;;;;;3.36;100.00;99665.38;5461513;26;19991;-73
2024/04/16 02:30:41;;;;;;;2.95;1.10;;;;;;;3.37;100.00;99675.81;5460943;26;20010;-73
2024/04/16 02:33:08;;;;;;;1.38;0.93;;;;;;;3.38;100.00;99679.28;5462152;26;19999;-73
2024/04/16 02:35:34;;;;;;;1.80;1.05;;;;;;;3.38;100.00;99688.13;5401507;26;19995;-73
2024/04/16 02:37:59;;;;;;;2.05;1.00;;;;;;;3.36;100.00;99683.97;5429994;26;20044;-73
2024/04/16 02:40:24;;;;;;;3.72;1.05;;;;;;;3.34;100.00;99686.78;5461740;26;20002;-72
2024/04/16 02:42:50;;;;;;;2.33;1.08;;;;;;;3.33;100.00;99687.00;5430651;26;19997;-73
2024/04/16 02:45:15;;;;;;;2.72;1.33;;;;;;;3.30;100.00;99690.81;5461718;26;20014;-73
2024/04/16 02:47:41;;;;;;;1.65;0.95;;;;;;;3.22;100.00;99678.44;5431305;26;19999;-74
2024/04/16 02:50:07;;;;;;;2.40;0.95;;;;;;;3.22;100.00;99686.41;5429922;26;20009;-73
2024/04/16 02:52:32;;;;;;;2.03;1.00;;;;;;;2.96;100.00;99654.91;5427808;26;20474;-73
2024/04/16 02:54:57;;;;;;;2.33;1.02;;;;;;;3.09;100.00;99683.53;5398280;26;19998;-73
2024/04/16 02:57:23;;;;;;;3.15;1.00;;;;;;;3.09;100.00;99685.38;5424907;26;19990;-73
2024/04/16 02:59:49;;;;;;;2.30;1.10;;;;;;;3.05;100.00;99693.69;5459180;26;19995;-75
2024/04/16 03:02:15;;;;;;;2.67;1.10;;;;;;;3.04;100.00;99691.19;5458845;26;20011;-73
2024/04/16 03:04:40;;;;;;;3.38;0.98;;;;;;;2.59;100.00;99623.78;5459297;26;20003;-73
2024/04/16 03:07:06;;;;;;;1.95;1.50;;;;;;;2.97;100.00;99687.59;5461463;26;20002;-74
2024/04/16 03:09:31;;;;;;;4.00;1.40;;;;;;;2.95;100.00;99689.63;5438223;26;19987;-73
2024/04/16 03:11:57;;;;;;;2.55;1.10;;;;;;;2.57;100.00;99641.72;5469509;26;20046;-73
2024/04/16 03:14:22;;;;;;;2.08;0.90;;;;;;;2.87;100.00;99689.66;5427063;26;19999;-73
2024/04/16 03:16:48;;;;;;;2.30;0.95;;;;;;;2.81;100.00;99689.38;5459986;26;19995;-73
2024/04/16 03:19:13;;;;;;;2.30;0.95;;;;;;;2.88;100.00;99701.94;5430125;26;19995;-73
2024/04/16 03:21:39;;;;;;;3.22;1.15;;;;;;;2.49;100.00;99649.75;5371085;26;20377;-73
2024/04/16 03:24:04;;;;;;;1.83;1.00;;;;;;;2.79;100.00;99704.66;5460111;26;20006;-73
2024/04/16 03:26:29;;;;;;;2.65;1.20;;;;;;;2.72;100.00;99695.75;5428458;26;19995;-74
2024/04/16 03:28:55;;;;;;;2.03;1.00;;;;;;;2.73;100.00;99708.03;5427536;26;20015;-74
2024/04/16 03:31:20;;;;;;;2.95;1.10;;;;;;;2.72;100.00;99703.72;5461559;26;20023;-73
2024/04/16 03:33:46;;;;;;;3.47;1.00;;;;;;;2.63;100.00;99691.47;5458815;26;20009;-73
2024/04/16 03:36:11;;;;;;;1.38;0.73;;;;;;;2.68;100.00;99707.72;5458564;26;20032;-73
2024/04/16 03:38:37;;;;;;;1.77;0.95;;;;;;;2.51;100.00;99687.56;5458766;26;20010;-73
2024/04/16 03:41:02;;;;;;;1.70;1.00;;;;;;;2.63;100.00;99715.38;5428607;26;19999;-73
2024/04/16 03:43:28;;;;;;;1.90;0.95;;;;;;;2.52;100.00;99699.84;5426661;26;20005;-73
2024/04/16 03:45:55;;;;;;;1.27;0.90;;;;;;;2.52;100.00;99697.19;5429977;26;20007;-74
2024/04/16 03:48:22;;;;;;;2.15;1.10;;;;;;;2.55;100.00;99715.41;5427854;26;19999;-73
2024/04/16 03:50:47;;;;;;;2.60;0.88;;;;;;;2.42;100.00;99702.72;5426142;26;20008;-73
2024/04/16 03:53:13;;;;;;;2.42;0.95;;;;;;;2.47;100.00;99707.50;5403491;26;20000;-73
2024/04/16 03:55:38;;;;;;;1.48;0.98;;;;;;;2.49;100.00;99718.78;5423895;26;20262;-72
2024/04/16 03:58:04;;;;;;;2.45;1.23;;;;;;;2.50;100.00;99715.94;5425610;26;20469;-73
2024/04/16 04:03:17;;;;;;;1.55;0.73;;;;;;;2.45;100.00;99704.19;5458698;26;20055;-72
2024/04/16 04:05:43;;;;;;;1.48;0.88;;;;;;;2.51;100.00;99720.25;5460468;26;20014;-73
2024/04/16 04:08:09;;;;;;;2.45;0.70;;;;;;;2.45;100.00;99707.69;5459267;26;20069;-73
2024/04/16 04:10:34;;;;;;;1.35;0.75;;;;;;;2.52;100.00;99726.41;5369415;26;20006;-72
2024/04/16 04:13:00;;;;;;;3.78;0.90;;;;;;;2.51;100.00;99722.06;5426690;26;20013;-72
2024/04/16 04:15:26;;;;;;;1.95;0.63;;;;;;;2.54;100.00;99730.53;5456635;26;20571;-73
2024/04/16 04:17:51;;;;;;;1.25;0.77;;;;;;;2.53;100.00;99730.72;5394414;26;20430;-72
2024/04/16 04:20:17;;;;;;;2.13;0.82;;;;;;;2.50;100.00;99731.88;5423599;26;20002;-72
2024/04/16 04:22:42;;;;;;;1.42;0.70;;;;;;;2.48;100.00;99725.91;5459940;26;20002;-72
2024/04/16 04:25:07;;;;;;;2.42;0.90;;;;;;;2.37;100.00;99709.53;5458376;26;19999;-72
2024/04/16 04:27:33;;;;;;;1.27;0.80;;;;;;;2.57;100.00;99737.31;5460406;26;20001;-71
2024/04/16 04:29:58;;;;;;;2.28;0.60;;;;;;;2.54;100.00;99733.19;5461240;26;20009;-71
2024/04/16 04:32:25;;;;;;;1.65;0.70;;;;;;;2.57;100.00;99742.63;5462186;26;20005;-72
2024/04/16 04:34:50;;;;;;;2.70;1.00;;;;;;;2.51;100.00;99727.38;5402050;26;19998;-73
2024/04/16 04:37:16;;;;;;;1.02;0.80;;;;;;;2.47;100.00;99724.25;5430891;26;20010;-71
2024/04/16 04:39:41;;;;;;;1.88;1.00;;;;;;;2.66;100.00;99744.25;5459359;26;19990;-72
2024/04/16 04:42:07;;;;;;;1.45;0.68;;;;;;;2.72;100.00;99751.53;5462781;26;19995;-72
2024/04/16 04:44:33;;;;;;;2.17;0.70;;;;;;;2.81;100.00;99754.94;5429620;26;19994;-72
2024/04/16 04:46:58;;;;;;;2.13;0.90;;;;;;;3.03;100.00;99754.16;5399364;26;20342;-72
2024/04/16 04:49:24;;;;;;;1.35;0.75;;;;;;;3.68;100.00;99749.34;5427435;26;20014;-72
2024/04/16 04:51:49;;;;;;;1.80;0.60;;;;;;;4.57;100.00;99760.00;5427153;26;19995;-72
2024/04/16 04:54:15;;;;;;;1.63;0.70;;;;;;;5.16;100.00;99752.69;5427512;26;20010;-72
2024/04/16 04:56:40;;;;;;;1.48;0.80;;;;;;;5.09;100.00;99751.81;5362068;26;19999;-71
2024/04/16 04:59:06;;;;;;;1.75;0.70;;;;;;;5.02;100.00;99764.25;5421852;26;20005;-71
2024/04/16 05:01:32;;;;;;;2.25;0.80;;;;;;;4.68;100.00;99754.22;5457072;26;20007;-72
2024/04/16 05:03:57;;;;;;;1.08;0.70;;;;;;;4.31;100.00;99757.84;5427835;26;20006;-72
2024/04/16 05:06:23;;;;;;;0.95;0.50;;;;;;;4.04;100.00;99744.16;5463409;26;20500;-72
2024/04/16 05:08:48;;;;;;;1.42;0.60;;;;;;;4.27;100.00;99762.69;5406056;26;19991;-72
2024/04/16 05:11:13;;;;;;;2.28;0.60;;;;;;;4.77;100.00;99762.91;5371295;26;20006;-72
2024/04/16 05:13:39;;;;;;;3.17;1.00;;;;;;;4.84;100.00;99769.19;5429252;26;20006;-72
2024/04/16 05:16:05;;;;;;;2.00;0.77;;;;;;;4.52;100.00;99741.94;5459134;26;20002;-72
2024/04/16 05:18:30;;;;;;;1.00;0.68;;;;;;;4.79;100.00;99763.56;5429827;26;20465;-72
2024/04/16 05:20:58;;;;;;;1.15;0.52;;;;;;;5.13;100.00;99763.78;5428191;26;19994;-72
2024/04/16 05:23:24;;;;;;;1.00;0.52;;;;;;;5.39;100.00;99736.50;5459310;26;20006;-71
2024/04/16 05:25:57;;;;;;;2.40;0.65;;;;;;;5.48;100.00;99742.53;5472542;26;20048;-73
2024/04/16 05:28:22;;;;;;;1.05;0.60;;;;;;;5.79;100.00;99776.03;5469044;26;20002;-72
2024/04/16 05:30:49;;;;;;;1.05;0.50;;;;;;;5.06;100.00;99682.84;5398945;26;19995;-72
2024/04/16 05:33:14;;;;;;;0.93;0.60;;;;;;;4.90;100.00;99737.28;5399390;26;20005;-72
2024/04/16 05:35:40;;;;;;;0.93;0.55;;;;;;;4.92;100.00;99777.88;5400867;26;20003;-72
2024/04/16 05:38:06;;;;;;;1.45;0.68;;;;;;;4.77;100.00;99768.25;5402155;26;20023;-72
2024/04/16 05:40:33;;;;;;;1.77;0.70;;;;;;;4.83;100.00;99781.66;5464090;26;20003;-72
2024/04/16 05:42:58;;;;;;;1.58;0.70;;;;;;;4.79;100.00;99779.56;5462703;26;20010;-72
2024/04/16 05:45:23;;;;;;;1.70;0.70;;;;;;;4.75;100.00;99771.13;5464193;26;19999;-72
2024/04/16 05:47:49;;;;;;;1.25;0.77;;;;;;;4.62;100.00;99758.47;5433050;26;20003;-72
2024/04/16 05:50:14;;;;;;;2.53;0.50;;;;;;;4.59;100.00;99772.16;5403663;26;19998;-71
2024/04/16 05:52:40;;;;;;;1.15;0.65;;;;;;;4.46;100.00;99767.47;5431971;26;20063;-72
2024/04/16 05:55:05;;;;;;;4.20;0.80;;;;;;;4.23;100.00;99748.09;5463114;26;20075;-72
2024/04/16 05:57:31;;;;;;;2.50;0.88;;;;;;;4.32;100.00;99775.47;5464380;26;19999;-72
2024/04/16 05:59:57;;;;;;;1.05;0.65;;;;;;;4.24;100.00;99785.22;5432501;26;20019;-72
2024/04/16 06:02:22;;;;;;;2.60;0.90;;;;;;;4.26;100.00;99782.34;5465282;26;19992;-72
2024/04/16 06:04:48;;;;;;;1.85;0.70;;;;;;;4.20;100.00;99778.56;5464671;26;20003;-72
2024/04/16 06:07:13;;;;;;;1.27;0.90;;;;;;;4.17;100.00;99783.44;5462541;26;20002;-72
2024/04/16 06:09:38;;;;;;;0.95;0.55;;;;;;;4.16;100.00;99760.50;5434504;26;20006;-71
2024/04/16 06:12:04;;;;;;;1.23;0.73;;;;;;;4.33;100.00;99782.44;5403601;26;19998;-72
2024/04/16 06:14:30;;;;;;;3.10;0.80;;;;;;;4.29;100.00;99760.69;5463416;26;20002;-72
2024/04/16 06:16:55;;;;;;;1.63;0.63;;;;;;;4.47;100.00;99790.47;5427779;26;20080;-72
2024/04/16 06:19:20;;;;;;;1.00;0.73;;;;;;;4.58;100.00;99791.81;5465622;26;20019;-72
2024/04/16 06:21:46;;;;;;;1.58;0.90;;;;;;;4.75;100.00;99786.28;5460768;26;19994;-72
2024/04/16 06:24:11;;;;;;;1.67;0.80;;;;;;;4.92;100.00;99793.88;5430377;26;19998;-72
2024/04/16 06:26:37;;;;;;;1.35;0.70;;;;;;;4.98;100.00;99778.97;5463994;26;20419;-72
2024/04/16 06:29:03;;;;;;;1.85;0.95;;;;;;;5.07;100.00;99793.84;5401173;26;19991;-71
2024/04/16 06:31:28;;;;;;;2.67;0.80;;;;;;;5.01;100.00;99802.59;5464409;26;20328;-72
2024/04/16 06:33:54;;;;;;;1.40;0.75;;;;;;;5.17;100.00;99793.56;5433137;26;20461;-72
2024/04/16 06:36:19;;;;;;;1.15;0.80;;;;;;;5.47;100.00;99791.59;5433497;26;19995;-72
2024/04/16 06:38:45;;;;;;;1.70;0.82;;;;;;;5.58;100.00;99795.59;5433904;26;20011;-71
2024/04/16 06:41:10;;;;;;;2.08;0.85;;;;;;;5.71;100.00;99803.72;5463122;26;20318;-72
2024/04/16 06:43:36;;;;;;;1.92;0.70;;;;;;;5.71;100.00;99798.38;5465428;26;20019;-73
2024/04/16 06:46:02;;;;;;;3.03;0.82;;;;;;;5.64;100.00;99795.66;5466893;26;19990;-72
2024/04/16 06:48:30;;;;;;;1.65;0.73;;;;;;;5.26;100.00;99763.06;5402158;26;20001;-72
2024/04/16 06:50:56;;;;;;;1.85;0.73;;;;;;;5.55;100.00;99803.97;5466036;26;20449;-72
2024/04/16 06:53:21;;;;;;;2.05;0.73;;;;;;;5.57;100.00;99801.94;5436185;26;19995;-72
2024/04/16 06:56:04;;;;;;;2.45;0.80;;;;;;;5.67;100.00;99809.63;5466296;26;19987;-72
2024/04/16 06:58:29;;;;;;;2.45;0.80;;;;;;;5.60;100.00;99785.56;5468083;26;20003;-72
2024/04/16 07:00:55;;;;;;;2.35;0.57;;;;;;;5.61;100.00;99806.69;5435493;26;19995;-72
2024/04/16 07:03:22;;;;;;;3.58;0.70;;;;;;;5.65;100.00;99809.81;5465591;26;19994;-72
2024/04/16 07:05:47;;;;;;;3.22;0.90;;;;;;;5.74;100.00;99823.88;5467717;26;19995;-72
2024/04/16 07:08:12;;;;;;;8.60;1.17;;;;;;;5.52;100.00;99775.00;5465460;26;19999;-73
2024/04/16 07:10:39;;;;;;;4.13;0.82;;;;;;;5.89;100.00;99813.91;5435131;26;19991;-71
2024/04/16 07:13:04;;;;;;;1.85;0.80;;;;;;;5.92;100.00;99816.19;5465674;26;20010;-72
2024/04/16 07:15:30;;;;;;;3.45;0.90;;;;;;;6.24;100.00;99812.16;5432602;26;20006;-71
2024/04/16 07:17:56;;;;;;;6.35;0.80;;;;;;;6.46;100.00;99812.94;5465101;26;20075;-72
2024/04/16 07:20:22;;;;;;;3.63;0.82;;;;;;;6.61;100.00;99820.81;5431615;26;19995;-72
2024/04/16 07:22:48;;;;;;;2.22;0.85;;;;;;;6.68;100.00;99810.97;5464051;26;20015;-72
2024/04/16 07:25:13;;;;;;;2.60;0.80;;;;;;;6.83;100.00;99816.19;5462261;26;20776;-72
2024/04/16 07:27:39;;;;;;;5.47;1.10;;;;;;;6.86;100.00;99821.16;5397477;26;20086;-72
2024/04/16 07:30:05;;;;;;;3.60;0.90;;;;;;;7.08;100.00;99819.16;5462237;26;20001;-73
2024/04/16 07:32:30;;;;;;;4.10;0.50;;;;;;;7.24;100.00;99823.34;5463530;26;20072;-72
2024/04/16 07:34:55;;;;;;;0.90;0.63;;;;;;;7.17;100.00;99819.81;5431678;26;20005;-71
2024/04/16 07:37:22;;;;;;;2.95;0.68;;;;;;;7.39;100.00;99817.84;5468372;26;19994;-72
2024/04/16 07:39:48;;;;;;;3.95;1.10;;;;;;;7.26;100.00;99819.44;5407088;26;19995;-71
2024/04/16 07:42:14;;;;;;;4.57;0.80;;;;;;;7.44;100.00;99826.06;5461403;26;20041;-72
2024/04/16 07:44:44;;;;;;;2.30;0.77;;;;;;;7.53;100.00;99835.56;5460857;26;20346;-72
2024/04/16 07:47:09;;;;;;;1.95;0.80;;;;;;;7.59;100.00;99818.69;5431009;26;20002;-72
2024/04/16 07:49:35;;;;;;;2.22;0.80;;;;;;;7.91;100.00;99835.84;5431745;26;20044;-73
2024/04/16 07:52:00;;;;;;;1.38;0.77;;;;;;;7.87;100.00;99826.53;5462681;26;19998;-72
2024/04/16 07:54:26;;;;;;;1.88;0.90;;;;;;;7.81;100.00;99838.06;5428883;26;19998;-72
2024/04/16 07:56:53;;;;;;;2.25;0.75;;;;;;;7.98;100.00;99839.31;5463666;26;20345;-73
2024/04/16 07:59:22;;;;;;;2.50;0.60;;;;;;;7.89;100.00;99829.84;5401655;26;19995;-72
2024/04/16 08:01:47;;;;;;;1.50;0.75;;;;;;;7.99;100.00;99845.50;5429271;26;20023;-72
2024/04/16 08:04:13;;;;;;;2.05;0.68;;;;;;;7.68;100.00;99811.28;5459345;26;19991;-71
2024/04/16 08:06:38;;;;;;;1.08;0.50;;;;;;;7.83;100.00;99819.94;5427640;26;20083;-71
2024/04/16 08:09:03;;;;;;;2.67;0.80;;;;;;;8.03;100.00;99853.97;5428466;26;19998;-70
2024/04/16 08:11:29;;;;;;;4.40;0.70;;;;;;;7.95;100.00;99858.50;5398286;26;20002;-71
2024/04/16 08:13:54;;;;;;;1.60;0.80;;;;;;;8.07;100.00;99852.50;5398674;26;20072;-71
2024/04/16 08:16:20;;;;;;;0.85;0.45;;;;;;;7.90;100.00;99828.81;5429032;26;20005;-71
2024/04/16 08:18:46;;;;;;;1.75;0.50;;;;;;;8.31;100.00;99848.38;5459853;26;19998;-71
2024/04/16 08:21:11;;;;;;;1.40;0.60;;;;;;;8.33;100.00;99865.91;5369477;26;20493;-73
2024/04/16 08:23:37;;;;;;;1.75;0.55;;;;;;;8.40;100.00;99860.56;5399591;26;19990;-72
2024/04/16 08:26:04;;;;;;;3.05;0.50;;;;;;;8.41;100.00;99868.41;5429148;26;19990;-72
2024/04/16 08:28:30;;;;;;;1.60;0.73;;;;;;;8.41;100.00;99871.09;5462371;26;19995;-71
2024/04/16 08:30:57;;;;;;;1.55;0.43;;;;;;;8.39;100.00;99864.28;5467981;26;19998;-72
2024/04/16 08:33:23;;;;;;;1.00;0.50;;;;;;;8.35;100.00;99871.88;5467748;26;20006;-72
2024/04/16 08:35:49;;;;;;;1.83;0.70;;;;;;;8.51;100.00;99875.19;5459350;26;19999;-71
2024/04/16 08:38:15;;;;;;;1.35;0.40;;;;;;;8.78;100.00;99871.44;5456412;26;20003;-72
2024/04/16 08:40:41;;;;;;;1.20;0.60;;;;;;;8.85;100.00;99877.59;5423957;26;20314;-72
2024/04/16 08:43:08;;;;;;;2.88;0.50;;;;;;;8.87;100.00;99886.28;5455913;26;20005;-75
2024/04/16 08:45:34;;;;;;;1.65;0.50;;;;;;;8.86;100.00;99878.44;5423804;26;19998;-71
2024/04/16 08:48:00;;;;;;;3.53;0.63;;;;;;;8.97;100.00;99885.00;5424300;26;20010;-72
2024/04/16 08:50:27;;;;;;;2.03;0.70;;;;;;;9.14;100.00;99886.19;5456259;26;19998;-72
2024/04/16 08:52:57;;;;;;;1.33;0.43;;;;;;;9.41;100.00;99886.91;5459029;26;19994;-71
2024/04/16 08:55:24;;;;;;;3.25;0.60;;;;;;;9.41;100.00;99866.25;5400117;26;20332;-72
2024/04/16 08:57:49;;;;;;;1.25;0.57;;;;;;;9.37;100.00;99899.06;5457060;26;19999;-73
2024/04/16 09:00:17;;;;;;;1.98;0.50;;;;;;;9.27;100.00;99888.81;5458674;26;20013;-73
2024/04/16 09:02:43;;;;;;;2.97;0.50;;;;;;;9.48;100.00;99892.22;5460734;26;19999;-72
2024/04/16 09:05:09;;;;;;;0.70;0.40;;;;;;;9.45;100.00;99889.97;5460953;26;20041;-73
2024/04/16 09:07:37;;;;;;;1.52;0.45;;;;;;;9.34;100.00;99859.25;5462124;26;20438;-73
2024/04/16 09:10:11;;;;;;;1.17;0.40;;;;;;;9.67;100.00;99896.69;5459964;26;20036;-73
2024/04/16 09:12:37;;;;;;;2.38;0.50;;;;;;;9.78;100.00;99906.72;5458984;26;20007;-72
2024/04/16 09:15:02;;;;;;;2.20;0.63;;;;;;;9.89;100.00;99884.53;5399988;26;20318;-73
2024/04/16 09:17:28;;;;;;;2.17;0.30;;;;;;;9.93;100.00;99902.91;5428743;26;19991;-73
2024/04/16 09:20:00;;;;;;;1.33;0.50;;;;;;;10.06;100.00;99908.19;5398710;26;20002;-73
2024/04/16 09:22:25;;;;;;;3.85;0.55;;;;;;;10.22;100.00;99893.41;5467703;26;19998;-73
2024/04/16 09:24:51;;;;;;;1.30;0.63;;;;;;;10.12;100.00;99900.09;5407353;26;20010;-72
2024/04/16 09:27:16;;;;;;;0.63;0.38;;;;;;;10.16;100.00;99899.66;5424665;26;20051;-73
2024/04/16 09:29:41;;;;;;;1.20;0.50;;;;;;;9.97;100.00;99909.53;5423081;26;20068;-72
2024/04/16 09:32:07;;;;;;;1.70;0.45;;;;;;;10.01;100.00;99918.78;5458105;26;20040;-72
2024/04/16 09:34:33;;;;;;;2.33;0.45;;;;;;;9.94;100.00;99913.47;5458276;26;20023;-71
2024/04/16 09:36:59;;;;;;;0.63;0.50;;;;;;;10.22;100.00;99901.47;5427660;26;19995;-72
2024/04/16 09:39:25;;;;;;;1.58;0.50;;;;;;;10.28;100.00;99914.06;5426738;26;20075;-71
2024/04/16 09:41:52;;;;;;;1.20;0.50;;;;;;;10.48;100.00;99905.84;5459232;26;19991;-72
2024/04/16 09:44:19;;;;;;;1.58;0.50;;;;;;;10.51;100.00;99905.41;5457969;26;19991;-75
2024/04/16 09:46:45;;;;;;;0.68;0.40;;;;;;;10.22;100.00;99891.53;5427273;26;20438;-71
2024/04/16 09:49:13;;;;;;;2.30;0.50;;;;;;;10.31;100.00;99914.44;5426878;26;19999;-72
2024/04/16 09:51:40;;;;;;;0.80;0.50;;;;;;;10.33;100.00;99916.91;5459161;26;20442;-72
2024/04/16 09:54:06;;;;;;;0.55;0.30;;;;;;;10.44;100.00;99899.25;5433234;26;20231;-73
2024/04/16 09:56:33;;;;;;;0.68;0.30;;;;;;;10.24;100.00;99932.47;5463025;26;20009;-73
2024/04/16 09:59:01;;;;;;;0.40;0.25;;;;;;;10.32;100.00;99920.66;5431816;26;20010;-72
2024/04/16 10:01:28;;;;;;;0.35;0.20;;;;;;;10.32;100.00;99910.72;5463198;26;19987;-73
2024/04/16 10:03:55;;;;;;;0.20;0.20;;;;;;;10.21;100.00;99922.16;5462396;26;20005;-74
2024/04/16 10:06:20;;;;;;;0.65;0.30;;;;;;;10.53;100.00;99920.28;5430722;26;19995;-72
2024/04/16 10:08:48;;;;;;;0.52;0.38;;;;;;;10.88;100.00;99910.84;5462450;26;19994;-73
2024/04/16 10:11:15;;;;;;;1.20;0.28;;;;;;;10.89;97.26;99915.16;5429599;26;19995;-73
2024/04/16 10:13:40;;;;;;;0.75;0.20;;;;;;;10.91;97.77;99923.84;5461994;26;20005;-70
2024/04/16 10:16:14;;;;;;;0.40;0.30;;;;;;;10.78;96.23;99922.13;5460605;26;19994;-72
2024/04/16 10:18:40;;;;;;;0.32;0.20;;;;;;;11.16;95.03;99924.63;5461366;26;19999;-73
2024/04/16 10:21:06;;;;;;;0.32;0.20;;;;;;;11.27;90.74;99934.63;5430435;26;20009;-73
2024/04/16 10:23:31;;;;;;;1.25;0.30;;;;;;;11.28;92.83;99924.69;5429432;26;20508;-71
2024/04/16 10:25:58;;;;;;;0.82;0.30;;;;;;;11.06;85.49;99913.56;5370849;26;19995;-73
2024/04/16 10:28:23;;;;;;;1.77;0.22;;;;;;;11.45;88.58;99928.41;5430630;26;20030;-73
2024/04/16 10:31:00;;;;;;;1.48;0.25;;;;;;;11.10;84.95;99920.13;5429343;26;20006;-70
2024/04/16 10:33:27;;;;;;;1.27;0.32;;;;;;;11.02;92.68;99937.38;5429695;26;20075;-72
2024/04/16 10:35:54;;;;;;;1.10;0.30;;;;;;;10.65;89.86;99931.13;5431054;26;20002;-73
2024/04/16 10:38:19;;;;;;;1.00;0.40;;;;;;;10.42;95.53;99931.75;5466355;26;19999;-74
2024/04/16 10:40:54;;;;;;;1.60;0.38;;;;;;;10.15;90.97;99935.66;5408703;26;19995;-71
2024/04/16 10:43:24;;;;;;;1.02;0.30;;;;;;;9.93;89.67;99930.59;5459740;26;20015;-72
2024/04/16 10:45:50;;;;;;;1.70;0.40;;;;;;;10.07;89.72;99944.81;5460542;26;20399;-72
2024/04/16 10:48:21;;;;;;;0.40;0.20;;;;;;;10.05;88.05;99928.88;5463097;26;20044;-73
2024/04/16 10:50:49;;;;;;;0.60;0.30;;;;;;;10.00;87.15;99922.50;5463095;26;20040;-72
2024/04/16 10:53:18;;;;;;;0.60;0.25;;;;;;;9.98;87.83;99951.47;5462921;26;19995;-73
2024/04/16 10:55:47;;;;;;;1.58;0.30;;;;;;;9.92;91.42;99953.16;5430433;26;20006;-73
2024/04/16 10:58:14;;;;;;;0.82;0.30;;;;;;;10.06;92.41;99943.97;5462039;26;20490;-71
2024/04/16 11:00:41;;;;;;;0.40;0.20;;;;;;;10.52;87.60;99942.81;5432860;26;20373;-73
2024/04/16 11:03:09;;;;;;;0.52;0.25;;;;;;;10.72;73.40;99925.69;5461167;26;20006;-70
2024/04/16 11:05:37;;;;;;;1.10;0.30;;;;;;;11.14;78.59;99945.56;5459773;26;19999;-70
2024/04/16 11:08:03;;;;;;;1.48;0.25;;;;;;;11.04;84.88;99947.94;5429531;26;20010;-71
2024/04/16 11:10:29;;;;;;;0.20;0.20;;;;;;;10.78;84.36;99952.53;5429624;26;20458;-71
2024/04/16 11:12:54;;;;;;;0.93;0.30;;;;;;;10.38;94.85;99925.16;5461131;26;19998;-71
2024/04/16 11:15:20;;;;;;;1.45;0.20;;;;;;;10.13;93.55;99925.09;5399457;26;20067;-72
2024/04/16 11:17:45;;;;;;;1.15;0.30;;;;;;;10.16;94.72;99948.03;5430056;26;20003;-73
2024/04/16 11:20:12;;;;;;;0.90;0.30;;;;;;;10.08;94.26;99963.41;5398865;26;19991;-73
2024/04/16 11:22:37;;;;;;;0.55;0.20;;;;;;;10.17;95.91;99961.28;5462448;26;19991;-73
2024/04/16 11:25:12;;;;;;;0.63;0.20;;;;;;;10.23;94.31;99957.72;5432228;26;20445;-73
2024/04/16 11:27:38;;;;;;;0.40;0.20;;;;;;;10.23;93.60;99963.09;5461648;26;20330;-73
2024/04/16 11:30:04;;;;;;;1.10;0.32;;;;;;;9.91;91.28;99934.56;5434839;26;19991;-74
2024/04/16 11:32:31;;;;;;;0.30;0.10;;;;;;;10.16;92.15;99966.84;5433219;26;19999;-71